sensor_id;sensor_type;location;lat;lon;timestamp;temperature;humidity
6260;DHT22;3163;51.516;4.000;2023-07-29T00:00:43;20.90;99.90
6260;DHT22;3163;51.516;4.000;2023-07-29T00:03:09;20.90;99.90
6260;DHT22;3163;51.516;4.000;2023-07-29T00:05:36;20.80;99.90
6260;DHT22;3163;51.516;4.000;2023-07-29T00:08:02;20.80;99.90
6260;DHT22;3163;51.516;4.000;2023-07-29T00:10:28;20.80;99.90
6260;DHT22;3163;51.516;4.000;2023-07-29T00:12:54;20.70;99.90
6260;DHT22;3163;51.516;4.000;2023-07-29T00:15:20;20.70;99.90
6260;DHT22;3163;51.516;4.000;2023-07-29T00:17:45;20.70;99.90
6260;DHT22;3163;51.516;4.000;2023-07-29T00:20:11;20.70;99.90
6260;DHT22;3163;51.516;4.000;2023-07-29T00:22:36;20.70;99.90
6260;DHT22;3163;51.516;4.000;2023-07-29T00:25:02;20.70;99.90
6260;DHT22;3163;51.516;4.000;2023-07-29T00:27:28;20.70;99.90
6260;DHT22;3163;51.516;4.000;2023-07-29T00:29:53;20.60;99.90
6260;DHT22;3163;51.516;4.000;2023-07-29T00:32:19;20.60;99.90
6260;DHT22;3163;51.516;4.000;2023-07-29T00:34:44;20.70;99.90
6260;DHT22;3163;51.516;4.000;2023-07-29T00:37:10;20.60;99.90
6260;DHT22;3163;51.516;4.000;2023-07-29T00:39:36;20.60;99.90
6260;DHT22;3163;51.516;4.000;2023-07-29T00:42:03;20.60;99.90
6260;DHT22;3163;51.516;4.000;2023-07-29T00:44:28;20.60;99.90
6260;DHT22;3163;51.516;4.000;2023-07-29T00:46:54;20.70;99.90
6260;DHT22;3163;51.516;4.000;2023-07-29T00:49:21;20.60;99.90
6260;DHT22;3163;51.516;4.000;2023-07-29T00:51:47;20.60;99.90
6260;DHT22;3163;51.516;4.000;2023-07-29T00:54:13;20.60;99.90
6260;DHT22;3163;51.516;4.000;2023-07-29T00:56:39;20.60;99.90
6260;DHT22;3163;51.516;4.000;2023-07-29T00:59:05;20.60;99.90
6260;DHT22;3163;51.516;4.000;2023-07-29T01:01:32;20.50;99.90
6260;DHT22;3163;51.516;4.000;2023-07-29T01:03:58;20.60;99.90
6260;DHT22;3163;51.516;4.000;2023-07-29T01:09:11;20.60;99.90
6260;DHT22;3163;51.516;4.000;2023-07-29T01:17:23;20.50;99.90
6260;DHT22;3163;51.516;4.000;2023-07-29T01:20:08;20.50;99.90
6260;DHT22;3163;51.516;4.000;2023-07-29T01:22:36;20.50;99.90
6260;DHT22;3163;51.516;4.000;2023-07-29T01:25:02;20.40;99.90
6260;DHT22;3163;51.516;4.000;2023-07-29T01:27:29;20.40;99.90
6260;DHT22;3163;51.516;4.000;2023-07-29T01:29:56;20.40;99.90
6260;DHT22;3163;51.516;4.000;2023-07-29T01:32:46;20.30;99.90
6260;DHT22;3163;51.516;4.000;2023-07-29T01:38:38;20.30;99.90
6260;DHT22;3163;51.516;4.000;2023-07-29T01:41:08;20.30;99.90
6260;DHT22;3163;51.516;4.000;2023-07-29T01:43:34;20.20;99.90
6260;DHT22;3163;51.516;4.000;2023-07-29T01:46:07;20.30;99.90
6260;DHT22;3163;51.516;4.000;2023-07-29T01:48:32;20.20;99.90
6260;DHT22;3163;51.516;4.000;2023-07-29T01:50:58;20.20;99.90
6260;DHT22;3163;51.516;4.000;2023-07-29T01:53:24;20.20;99.90
6260;DHT22;3163;51.516;4.000;2023-07-29T01:55:49;20.20;99.90
6260;DHT22;3163;51.516;4.000;2023-07-29T01:58:15;20.30;99.90
6260;DHT22;3163;51.516;4.000;2023-07-29T02:00:40;20.30;99.90
6260;DHT22;3163;51.516;4.000;2023-07-29T02:03:06;20.30;99.90
6260;DHT22;3163;51.516;4.000;2023-07-29T02:05:32;20.30;99.90
6260;DHT22;3163;51.516;4.000;2023-07-29T02:07:57;20.20;99.90
6260;DHT22;3163;51.516;4.000;2023-07-29T02:10:23;20.20;99.90
6260;DHT22;3163;51.516;4.000;2023-07-29T02:12:49;20.20;99.90
6260;DHT22;3163;51.516;4.000;2023-07-29T02:15:14;20.30;99.90
6260;DHT22;3163;51.516;4.000;2023-07-29T02:17:41;20.30;99.90
6260;DHT22;3163;51.516;4.000;2023-07-29T02:20:08;20.20;99.90
6260;DHT22;3163;51.516;4.000;2023-07-29T02:22:34;20.30;99.90
6260;DHT22;3163;51.516;4.000;2023-07-29T02:25:00;20.30;99.90
6260;DHT22;3163;51.516;4.000;2023-07-29T02:27:26;20.30;99.90
6260;DHT22;3163;51.516;4.000;2023-07-29T02:29:53;20.30;99.90
6260;DHT22;3163;51.516;4.000;2023-07-29T02:32:19;20.30;99.90
6260;DHT22;3163;51.516;4.000;2023-07-29T02:34:45;20.40;99.90
6260;DHT22;3163;51.516;4.000;2023-07-29T02:37:10;20.40;99.90
6260;DHT22;3163;51.516;4.000;2023-07-29T02:39:36;20.40;99.90
6260;DHT22;3163;51.516;4.000;2023-07-29T02:42:02;20.40;99.90
6260;DHT22;3163;51.516;4.000;2023-07-29T02:44:28;20.40;99.90
6260;DHT22;3163;51.516;4.000;2023-07-29T02:46:54;20.40;99.90
6260;DHT22;3163;51.516;4.000;2023-07-29T02:49:21;20.40;99.90
6260;DHT22;3163;51.516;4.000;2023-07-29T02:51:47;20.30;99.90
6260;DHT22;3163;51.516;4.000;2023-07-29T02:54:13;20.30;99.90
6260;DHT22;3163;51.516;4.000;2023-07-29T02:56:38;20.40;99.90
6260;DHT22;3163;51.516;4.000;2023-07-29T02:59:04;20.40;99.90
6260;DHT22;3163;51.516;4.000;2023-07-29T03:01:30;20.30;99.90
6260;DHT22;3163;51.516;4.000;2023-07-29T03:03:56;20.30;99.90
6260;DHT22;3163;51.516;4.000;2023-07-29T03:06:21;20.20;99.90
6260;DHT22;3163;51.516;4.000;2023-07-29T03:08:47;20.30;99.90
6260;DHT22;3163;51.516;4.000;2023-07-29T03:11:14;20.30;99.90
6260;DHT22;3163;51.516;4.000;2023-07-29T03:13:40;20.30;99.90
6260;DHT22;3163;51.516;4.000;2023-07-29T03:18:35;20.20;99.90
6260;DHT22;3163;51.516;4.000;2023-07-29T03:21:01;20.30;99.90
6260;DHT22;3163;51.516;4.000;2023-07-29T03:23:28;20.30;99.90
6260;DHT22;3163;51.516;4.000;2023-07-29T03:25:58;20.30;99.90
6260;DHT22;3163;51.516;4.000;2023-07-29T03:28:29;20.30;99.90
6260;DHT22;3163;51.516;4.000;2023-07-29T03:30:55;20.20;99.90
6260;DHT22;3163;51.516;4.000;2023-07-29T03:33:21;20.30;99.90
6260;DHT22;3163;51.516;4.000;2023-07-29T03:35:47;20.30;99.90
6260;DHT22;3163;51.516;4.000;2023-07-29T03:38:12;20.20;99.90
6260;DHT22;3163;51.516;4.000;2023-07-29T03:40:39;20.20;99.90
6260;DHT22;3163;51.516;4.000;2023-07-29T03:43:04;20.30;99.90
6260;DHT22;3163;51.516;4.000;2023-07-29T03:45:30;20.30;99.90
6260;DHT22;3163;51.516;4.000;2023-07-29T03:47:56;20.30;99.90
6260;DHT22;3163;51.516;4.000;2023-07-29T03:50:22;20.30;99.90
6260;DHT22;3163;51.516;4.000;2023-07-29T03:52:48;20.30;99.90
6260;DHT22;3163;51.516;4.000;2023-07-29T03:55:13;20.30;99.90
6260;DHT22;3163;51.516;4.000;2023-07-29T03:57:39;20.30;99.90
6260;DHT22;3163;51.516;4.000;2023-07-29T04:00:05;20.20;99.90
6260;DHT22;3163;51.516;4.000;2023-07-29T04:02:31;20.20;99.90
6260;DHT22;3163;51.516;4.000;2023-07-29T04:04:57;20.20;99.90
6260;DHT22;3163;51.516;4.000;2023-07-29T04:07:22;20.20;99.90
6260;DHT22;3163;51.516;4.000;2023-07-29T04:09:48;20.20;99.90
6260;DHT22;3163;51.516;4.000;2023-07-29T04:12:15;20.20;99.90
6260;DHT22;3163;51.516;4.000;2023-07-29T04:14:41;20.20;99.90
6260;DHT22;3163;51.516;4.000;2023-07-29T04:17:07;20.20;99.90
6260;DHT22;3163;51.516;4.000;2023-07-29T04:19:33;20.20;99.90
6260;DHT22;3163;51.516;4.000;2023-07-29T04:21:58;20.20;99.90
6260;DHT22;3163;51.516;4.000;2023-07-29T04:24:24;20.20;99.90
6260;DHT22;3163;51.516;4.000;2023-07-29T04:26:50;20.20;99.90
6260;DHT22;3163;51.516;4.000;2023-07-29T04:29:15;20.20;99.90
6260;DHT22;3163;51.516;4.000;2023-07-29T04:31:41;20.20;99.90
6260;DHT22;3163;51.516;4.000;2023-07-29T04:34:08;20.30;99.90
6260;DHT22;3163;51.516;4.000;2023-07-29T04:36:33;20.20;99.90
6260;DHT22;3163;51.516;4.000;2023-07-29T04:38:59;20.20;99.90
6260;DHT22;3163;51.516;4.000;2023-07-29T04:41:24;20.10;99.90
6260;DHT22;3163;51.516;4.000;2023-07-29T04:43:50;20.20;99.90
6260;DHT22;3163;51.516;4.000;2023-07-29T04:46:16;20.10;99.90
6260;DHT22;3163;51.516;4.000;2023-07-29T04:48:41;20.20;99.90
6260;DHT22;3163;51.516;4.000;2023-07-29T04:51:07;20.30;99.90
6260;DHT22;3163;51.516;4.000;2023-07-29T04:53:33;20.30;99.90
6260;DHT22;3163;51.516;4.000;2023-07-29T04:56:00;20.30;99.90
6260;DHT22;3163;51.516;4.000;2023-07-29T04:58:26;20.30;99.90
6260;DHT22;3163;51.516;4.000;2023-07-29T05:00:54;20.40;99.90
6260;DHT22;3163;51.516;4.000;2023-07-29T05:03:19;20.40;99.90
6260;DHT22;3163;51.516;4.000;2023-07-29T05:05:45;20.40;99.90
6260;DHT22;3163;51.516;4.000;2023-07-29T05:08:11;20.30;99.90
6260;DHT22;3163;51.516;4.000;2023-07-29T05:10:36;20.30;99.90
6260;DHT22;3163;51.516;4.000;2023-07-29T05:13:02;20.30;99.90
6260;DHT22;3163;51.516;4.000;2023-07-29T05:15:28;20.30;99.90
6260;DHT22;3163;51.516;4.000;2023-07-29T05:17:53;20.30;99.90
6260;DHT22;3163;51.516;4.000;2023-07-29T05:20:19;20.40;99.90
6260;DHT22;3163;51.516;4.000;2023-07-29T05:22:45;20.50;99.90
6260;DHT22;3163;51.516;4.000;2023-07-29T05:25:10;20.40;99.90
6260;DHT22;3163;51.516;4.000;2023-07-29T05:27:36;20.30;99.90
6260;DHT22;3163;51.516;4.000;2023-07-29T05:30:01;20.50;99.90
6260;DHT22;3163;51.516;4.000;2023-07-29T05:32:27;20.50;99.90
6260;DHT22;3163;51.516;4.000;2023-07-29T05:34:53;20.70;99.90
6260;DHT22;3163;51.516;4.000;2023-07-29T05:37:18;20.80;99.90
6260;DHT22;3163;51.516;4.000;2023-07-29T05:39:44;20.90;99.90
6260;DHT22;3163;51.516;4.000;2023-07-29T05:42:09;20.90;99.90
6260;DHT22;3163;51.516;4.000;2023-07-29T05:44:35;20.90;99.90
6260;DHT22;3163;51.516;4.000;2023-07-29T05:47:01;21.00;99.90
6260;DHT22;3163;51.516;4.000;2023-07-29T05:49:26;20.90;99.90
6260;DHT22;3163;51.516;4.000;2023-07-29T05:51:52;20.90;99.90
6260;DHT22;3163;51.516;4.000;2023-07-29T05:54:18;20.90;99.90
6260;DHT22;3163;51.516;4.000;2023-07-29T05:56:44;21.00;99.90
6260;DHT22;3163;51.516;4.000;2023-07-29T05:59:10;21.10;99.90
6260;DHT22;3163;51.516;4.000;2023-07-29T06:01:35;21.00;99.90
6260;DHT22;3163;51.516;4.000;2023-07-29T06:04:01;21.00;99.90
6260;DHT22;3163;51.516;4.000;2023-07-29T06:06:27;21.10;99.90
6260;DHT22;3163;51.516;4.000;2023-07-29T06:08:52;21.10;99.90
6260;DHT22;3163;51.516;4.000;2023-07-29T06:11:18;21.10;99.90
6260;DHT22;3163;51.516;4.000;2023-07-29T06:13:44;21.10;99.90
6260;DHT22;3163;51.516;4.000;2023-07-29T06:16:09;21.20;99.90
6260;DHT22;3163;51.516;4.000;2023-07-29T06:18:35;21.10;99.90
6260;DHT22;3163;51.516;4.000;2023-07-29T06:21:00;21.10;99.90
6260;DHT22;3163;51.516;4.000;2023-07-29T06:23:26;21.20;99.90
6260;DHT22;3163;51.516;4.000;2023-07-29T06:25:52;21.30;99.90
6260;DHT22;3163;51.516;4.000;2023-07-29T06:28:17;21.50;99.90
6260;DHT22;3163;51.516;4.000;2023-07-29T06:30:43;21.50;99.90
6260;DHT22;3163;51.516;4.000;2023-07-29T06:33:08;21.40;99.90
6260;DHT22;3163;51.516;4.000;2023-07-29T06:35:34;21.50;99.90
6260;DHT22;3163;51.516;4.000;2023-07-29T06:38:00;21.50;99.90
6260;DHT22;3163;51.516;4.000;2023-07-29T06:40:25;21.20;99.90
6260;DHT22;3163;51.516;4.000;2023-07-29T06:42:51;21.20;99.90
6260;DHT22;3163;51.516;4.000;2023-07-29T06:45:17;21.20;99.90
6260;DHT22;3163;51.516;4.000;2023-07-29T06:47:42;21.30;99.90
6260;DHT22;3163;51.516;4.000;2023-07-29T06:50:08;21.20;99.90
6260;DHT22;3163;51.516;4.000;2023-07-29T06:52:34;21.30;99.90
6260;DHT22;3163;51.516;4.000;2023-07-29T06:55:02;21.30;99.90
6260;DHT22;3163;51.516;4.000;2023-07-29T06:57:28;21.30;99.90
6260;DHT22;3163;51.516;4.000;2023-07-29T06:59:53;21.40;99.90
6260;DHT22;3163;51.516;4.000;2023-07-29T07:02:19;21.30;99.90
6260;DHT22;3163;51.516;4.000;2023-07-29T07:04:44;21.50;99.90
6260;DHT22;3163;51.516;4.000;2023-07-29T07:07:10;21.40;99.90
6260;DHT22;3163;51.516;4.000;2023-07-29T07:09:36;21.40;99.90
6260;DHT22;3163;51.516;4.000;2023-07-29T07:12:01;21.20;99.90
6260;DHT22;3163;51.516;4.000;2023-07-29T07:14:27;21.20;99.90
6260;DHT22;3163;51.516;4.000;2023-07-29T07:16:53;21.40;99.90
6260;DHT22;3163;51.516;4.000;2023-07-29T07:19:18;21.70;99.90
6260;DHT22;3163;51.516;4.000;2023-07-29T07:21:44;21.60;99.90
6260;DHT22;3163;51.516;4.000;2023-07-29T07:24:10;21.70;99.90
6260;DHT22;3163;51.516;4.000;2023-07-29T07:26:35;21.80;99.90
6260;DHT22;3163;51.516;4.000;2023-07-29T07:29:01;21.80;99.90
6260;DHT22;3163;51.516;4.000;2023-07-29T07:31:26;21.80;99.90
6260;DHT22;3163;51.516;4.000;2023-07-29T07:33:52;21.80;99.90
6260;DHT22;3163;51.516;4.000;2023-07-29T07:36:18;21.90;99.90
6260;DHT22;3163;51.516;4.000;2023-07-29T07:38:43;21.70;99.90
6260;DHT22;3163;51.516;4.000;2023-07-29T07:41:09;21.50;99.90
6260;DHT22;3163;51.516;4.000;2023-07-29T07:43:34;21.50;99.90
6260;DHT22;3163;51.516;4.000;2023-07-29T07:46:01;21.70;99.90
6260;DHT22;3163;51.516;4.000;2023-07-29T07:48:27;21.90;99.90
6260;DHT22;3163;51.516;4.000;2023-07-29T07:50:53;21.90;99.90
6260;DHT22;3163;51.516;4.000;2023-07-29T07:53:19;22.10;99.90
6260;DHT22;3163;51.516;4.000;2023-07-29T07:55:45;21.90;99.90
6260;DHT22;3163;51.516;4.000;2023-07-29T07:58:11;21.80;99.90
6260;DHT22;3163;51.516;4.000;2023-07-29T08:00:37;21.40;99.90
6260;DHT22;3163;51.516;4.000;2023-07-29T08:03:03;21.10;99.90
6260;DHT22;3163;51.516;4.000;2023-07-29T08:05:28;21.00;99.90
6260;DHT22;3163;51.516;4.000;2023-07-29T08:07:54;20.90;99.90
6260;DHT22;3163;51.516;4.000;2023-07-29T08:10:20;21.00;99.90
6260;DHT22;3163;51.516;4.000;2023-07-29T08:12:45;21.40;99.90
6260;DHT22;3163;51.516;4.000;2023-07-29T08:15:11;21.50;99.90
6260;DHT22;3163;51.516;4.000;2023-07-29T08:17:37;21.70;99.90
6260;DHT22;3163;51.516;4.000;2023-07-29T08:20:02;21.80;99.90
6260;DHT22;3163;51.516;4.000;2023-07-29T08:22:28;21.60;99.90
6260;DHT22;3163;51.516;4.000;2023-07-29T08:24:54;21.60;99.90
6260;DHT22;3163;51.516;4.000;2023-07-29T08:27:19;21.60;99.90
6260;DHT22;3163;51.516;4.000;2023-07-29T08:29:45;21.70;99.90
6260;DHT22;3163;51.516;4.000;2023-07-29T08:32:11;21.50;99.90
6260;DHT22;3163;51.516;4.000;2023-07-29T08:34:36;21.60;99.90
6260;DHT22;3163;51.516;4.000;2023-07-29T08:37:02;21.40;99.90
6260;DHT22;3163;51.516;4.000;2023-07-29T08:39:28;21.50;99.90
6260;DHT22;3163;51.516;4.000;2023-07-29T08:42:08;21.40;99.90
6260;DHT22;3163;51.516;4.000;2023-07-29T08:44:40;21.40;99.90
6260;DHT22;3163;51.516;4.000;2023-07-29T08:47:06;21.50;99.90
6260;DHT22;3163;51.516;4.000;2023-07-29T08:49:33;21.50;99.90
6260;DHT22;3163;51.516;4.000;2023-07-29T08:51:59;21.50;99.90
6260;DHT22;3163;51.516;4.000;2023-07-29T08:54:26;21.40;99.90
6260;DHT22;3163;51.516;4.000;2023-07-29T08:56:52;21.40;99.90
6260;DHT22;3163;51.516;4.000;2023-07-29T08:59:19;21.30;99.90
6260;DHT22;3163;51.516;4.000;2023-07-29T09:01:45;21.10;99.90
6260;DHT22;3163;51.516;4.000;2023-07-29T09:04:12;21.00;99.90
6260;DHT22;3163;51.516;4.000;2023-07-29T09:06:39;20.90;99.90
6260;DHT22;3163;51.516;4.000;2023-07-29T09:09:05;20.90;99.90
6260;DHT22;3163;51.516;4.000;2023-07-29T09:11:33;20.80;99.90
6260;DHT22;3163;51.516;4.000;2023-07-29T09:13:58;21.10;99.90
6260;DHT22;3163;51.516;4.000;2023-07-29T09:16:24;21.00;99.90
6260;DHT22;3163;51.516;4.000;2023-07-29T09:18:51;21.10;99.90
6260;DHT22;3163;51.516;4.000;2023-07-29T09:21:18;21.20;99.90
6260;DHT22;3163;51.516;4.000;2023-07-29T09:23:48;21.30;99.90
6260;DHT22;3163;51.516;4.000;2023-07-29T09:26:22;21.30;99.90
6260;DHT22;3163;51.516;4.000;2023-07-29T09:28:52;21.30;99.90
6260;DHT22;3163;51.516;4.000;2023-07-29T09:31:21;21.20;99.90
6260;DHT22;3163;51.516;4.000;2023-07-29T09:33:46;21.20;99.90
6260;DHT22;3163;51.516;4.000;2023-07-29T09:36:12;21.10;99.90
6260;DHT22;3163;51.516;4.000;2023-07-29T09:38:38;21.30;99.90
6260;DHT22;3163;51.516;4.000;2023-07-29T09:41:05;21.20;99.90
6260;DHT22;3163;51.516;4.000;2023-07-29T09:43:32;21.00;99.90
6260;DHT22;3163;51.516;4.000;2023-07-29T09:46:01;21.20;99.90
6260;DHT22;3163;51.516;4.000;2023-07-29T09:48:27;21.30;99.90
6260;DHT22;3163;51.516;4.000;2023-07-29T09:50:56;20.50;99.90
6260;DHT22;3163;51.516;4.000;2023-07-29T09:53:22;20.30;99.90
6260;DHT22;3163;51.516;4.000;2023-07-29T09:55:48;20.30;99.90
6260;DHT22;3163;51.516;4.000;2023-07-29T09:58:25;20.10;99.90
6260;DHT22;3163;51.516;4.000;2023-07-29T10:00:52;20.10;99.90
6260;DHT22;3163;51.516;4.000;2023-07-29T10:03:21;20.10;99.90
6260;DHT22;3163;51.516;4.000;2023-07-29T10:05:47;20.30;99.90
6260;DHT22;3163;51.516;4.000;2023-07-29T10:08:13;20.10;99.90
6260;DHT22;3163;51.516;4.000;2023-07-29T10:10:42;21.00;99.90
6260;DHT22;3163;51.516;4.000;2023-07-29T10:13:08;21.30;99.90
6260;DHT22;3163;51.516;4.000;2023-07-29T10:15:34;21.40;99.90
6260;DHT22;3163;51.516;4.000;2023-07-29T10:18:01;21.60;99.90
6260;DHT22;3163;51.516;4.000;2023-07-29T10:20:28;21.60;99.90
6260;DHT22;3163;51.516;4.000;2023-07-29T10:22:55;21.70;99.90
6260;DHT22;3163;51.516;4.000;2023-07-29T10:25:25;21.80;99.90
6260;DHT22;3163;51.516;4.000;2023-07-29T10:28:01;21.80;99.90
6260;DHT22;3163;51.516;4.000;2023-07-29T10:30:28;21.80;99.90
6260;DHT22;3163;51.516;4.000;2023-07-29T10:32:57;21.80;99.90
6260;DHT22;3163;51.516;4.000;2023-07-29T10:35:23;21.70;99.90
6260;DHT22;3163;51.516;4.000;2023-07-29T10:37:51;21.70;99.90
6260;DHT22;3163;51.516;4.000;2023-07-29T10:40:19;21.80;99.90
6260;DHT22;3163;51.516;4.000;2023-07-29T10:43:02;22.00;99.90
6260;DHT22;3163;51.516;4.000;2023-07-29T10:45:40;22.30;99.90
6260;DHT22;3163;51.516;4.000;2023-07-29T10:48:13;23.10;99.90
6260;DHT22;3163;51.516;4.000;2023-07-29T10:50:39;23.00;99.90
6260;DHT22;3163;51.516;4.000;2023-07-29T10:53:05;23.10;99.90
6260;DHT22;3163;51.516;4.000;2023-07-29T10:55:35;23.10;99.90
6260;DHT22;3163;51.516;4.000;2023-07-29T10:58:08;23.10;99.90
6260;DHT22;3163;51.516;4.000;2023-07-29T11:00:34;23.30;99.90
6260;DHT22;3163;51.516;4.000;2023-07-29T11:03:02;23.10;99.90
6260;DHT22;3163;51.516;4.000;2023-07-29T11:08:27;22.80;99.90
6260;DHT22;3163;51.516;4.000;2023-07-29T11:11:03;22.80;99.90
6260;DHT22;3163;51.516;4.000;2023-07-29T11:13:30;22.90;99.90
6260;DHT22;3163;51.516;4.000;2023-07-29T11:15:57;22.90;99.90
6260;DHT22;3163;51.516;4.000;2023-07-29T11:18:35;22.90;99.90
6260;DHT22;3163;51.516;4.000;2023-07-29T11:21:02;22.90;99.90
6260;DHT22;3163;51.516;4.000;2023-07-29T11:23:36;22.90;99.90
6260;DHT22;3163;51.516;4.000;2023-07-29T11:26:03;22.90;99.90
6260;DHT22;3163;51.516;4.000;2023-07-29T11:28:29;22.90;99.90
6260;DHT22;3163;51.516;4.000;2023-07-29T11:30:56;22.90;99.90
6260;DHT22;3163;51.516;4.000;2023-07-29T11:33:24;22.70;99.90
6260;DHT22;3163;51.516;4.000;2023-07-29T11:35:51;22.80;99.90
6260;DHT22;3163;51.516;4.000;2023-07-29T11:38:19;23.10;99.90
6260;DHT22;3163;51.516;4.000;2023-07-29T11:41:01;23.40;99.90
6260;DHT22;3163;51.516;4.000;2023-07-29T12:08:03;24.90;99.90
6260;DHT22;3163;51.516;4.000;2023-07-29T12:10:29;24.80;99.90
6260;DHT22;3163;51.516;4.000;2023-07-29T12:12:55;24.90;99.90
6260;DHT22;3163;51.516;4.000;2023-07-29T12:15:25;25.10;99.90
6260;DHT22;3163;51.516;4.000;2023-07-29T12:17:56;25.30;99.90
6260;DHT22;3163;51.516;4.000;2023-07-29T12:20:22;25.50;99.90
6260;DHT22;3163;51.516;4.000;2023-07-29T12:22:55;25.50;99.90
6260;DHT22;3163;51.516;4.000;2023-07-29T12:25:22;25.40;99.90
6260;DHT22;3163;51.516;4.000;2023-07-29T12:27:48;25.50;99.90
6260;DHT22;3163;51.516;4.000;2023-07-29T12:30:14;25.70;99.90
6260;DHT22;3163;51.516;4.000;2023-07-29T12:32:46;25.90;99.90
6260;DHT22;3163;51.516;4.000;2023-07-29T12:35:13;25.90;99.90
6260;DHT22;3163;51.516;4.000;2023-07-29T12:37:38;26.20;99.90
6260;DHT22;3163;51.516;4.000;2023-07-29T12:40:08;26.30;99.90
6260;DHT22;3163;51.516;4.000;2023-07-29T12:42:34;26.40;99.90
6260;DHT22;3163;51.516;4.000;2023-07-29T12:45:00;26.40;99.90
6260;DHT22;3163;51.516;4.000;2023-07-29T12:47:25;26.70;99.90
6260;DHT22;3163;51.516;4.000;2023-07-29T12:49:51;26.80;99.90
6260;DHT22;3163;51.516;4.000;2023-07-29T12:52:16;26.90;99.90
6260;DHT22;3163;51.516;4.000;2023-07-29T12:54:42;26.80;99.90
6260;DHT22;3163;51.516;4.000;2023-07-29T12:57:09;26.70;99.90
6260;DHT22;3163;51.516;4.000;2023-07-29T12:59:35;27.00;99.90
6260;DHT22;3163;51.516;4.000;2023-07-29T13:02:00;27.10;99.90
6260;DHT22;3163;51.516;4.000;2023-07-29T13:04:26;26.80;99.90
6260;DHT22;3163;51.516;4.000;2023-07-29T13:06:51;26.90;99.90
6260;DHT22;3163;51.516;4.000;2023-07-29T13:09:17;27.00;99.90
6260;DHT22;3163;51.516;4.000;2023-07-29T13:11:43;26.80;99.90
6260;DHT22;3163;51.516;4.000;2023-07-29T13:14:08;26.60;99.90
6260;DHT22;3163;51.516;4.000;2023-07-29T13:16:34;25.90;99.90
6260;DHT22;3163;51.516;4.000;2023-07-29T13:18:59;25.90;99.90
6260;DHT22;3163;51.516;4.000;2023-07-29T13:21:25;25.30;99.90
6260;DHT22;3163;51.516;4.000;2023-07-29T13:23:52;25.10;99.90
6260;DHT22;3163;51.516;4.000;2023-07-29T13:26:17;25.40;99.90
6260;DHT22;3163;51.516;4.000;2023-07-29T13:28:43;25.00;99.90
6260;DHT22;3163;51.516;4.000;2023-07-29T13:31:08;25.30;99.90
6260;DHT22;3163;51.516;4.000;2023-07-29T13:33:34;25.50;99.90
6260;DHT22;3163;51.516;4.000;2023-07-29T13:36:00;25.30;99.90
6260;DHT22;3163;51.516;4.000;2023-07-29T13:38:28;25.00;99.90
6260;DHT22;3163;51.516;4.000;2023-07-29T13:40:54;24.70;99.90
6260;DHT22;3163;51.516;4.000;2023-07-29T13:43:21;24.30;99.90
6260;DHT22;3163;51.516;4.000;2023-07-29T13:45:47;23.30;99.90
6260;DHT22;3163;51.516;4.000;2023-07-29T13:48:14;23.20;99.90
6260;DHT22;3163;51.516;4.000;2023-07-29T13:50:40;21.40;99.90
6260;DHT22;3163;51.516;4.000;2023-07-29T13:53:06;21.00;99.90
6260;DHT22;3163;51.516;4.000;2023-07-29T13:55:32;21.10;99.90
6260;DHT22;3163;51.516;4.000;2023-07-29T13:57:58;21.30;99.90
6260;DHT22;3163;51.516;4.000;2023-07-29T14:02:49;22.10;99.90
6260;DHT22;3163;51.516;4.000;2023-07-29T14:05:15;21.90;99.90
6260;DHT22;3163;51.516;4.000;2023-07-29T14:07:40;22.00;99.90
6260;DHT22;3163;51.516;4.000;2023-07-29T14:10:06;22.00;99.90
6260;DHT22;3163;51.516;4.000;2023-07-29T14:12:32;22.50;99.90
6260;DHT22;3163;51.516;4.000;2023-07-29T14:14:58;22.70;99.90
6260;DHT22;3163;51.516;4.000;2023-07-29T14:17:23;22.70;99.90
6260;DHT22;3163;51.516;4.000;2023-07-29T14:19:49;22.70;99.90
6260;DHT22;3163;51.516;4.000;2023-07-29T14:22:14;22.80;99.90
6260;DHT22;3163;51.516;4.000;2023-07-29T14:24:40;23.20;99.90
6260;DHT22;3163;51.516;4.000;2023-07-29T14:27:06;23.10;99.90
6260;DHT22;3163;51.516;4.000;2023-07-29T14:29:31;22.50;99.90
6260;DHT22;3163;51.516;4.000;2023-07-29T14:31:57;22.60;99.90
6260;DHT22;3163;51.516;4.000;2023-07-29T14:34:23;22.70;99.90
6260;DHT22;3163;51.516;4.000;2023-07-29T14:36:48;22.90;99.90
6260;DHT22;3163;51.516;4.000;2023-07-29T14:39:14;23.20;99.90
6260;DHT22;3163;51.516;4.000;2023-07-29T14:41:40;23.10;99.90
6260;DHT22;3163;51.516;4.000;2023-07-29T14:44:05;22.70;99.90
6260;DHT22;3163;51.516;4.000;2023-07-29T14:46:31;23.00;99.90
6260;DHT22;3163;51.516;4.000;2023-07-29T14:48:56;23.00;99.90
6260;DHT22;3163;51.516;4.000;2023-07-29T14:51:22;23.00;99.90
6260;DHT22;3163;51.516;4.000;2023-07-29T14:53:48;22.80;99.90
6260;DHT22;3163;51.516;4.000;2023-07-29T14:56:14;22.70;99.90
6260;DHT22;3163;51.516;4.000;2023-07-29T14:58:43;22.60;99.90
6260;DHT22;3163;51.516;4.000;2023-07-29T15:01:09;23.00;99.90
6260;DHT22;3163;51.516;4.000;2023-07-29T15:03:34;23.00;99.90
6260;DHT22;3163;51.516;4.000;2023-07-29T15:06:00;23.10;99.90
6260;DHT22;3163;51.516;4.000;2023-07-29T15:08:26;23.20;99.90
6260;DHT22;3163;51.516;4.000;2023-07-29T15:10:52;22.70;99.90
6260;DHT22;3163;51.516;4.000;2023-07-29T15:13:19;22.80;99.90
6260;DHT22;3163;51.516;4.000;2023-07-29T15:15:45;22.80;99.90
6260;DHT22;3163;51.516;4.000;2023-07-29T15:18:11;22.90;99.90
6260;DHT22;3163;51.516;4.000;2023-07-29T15:20:36;23.00;99.90
6260;DHT22;3163;51.516;4.000;2023-07-29T15:23:02;22.90;99.90
6260;DHT22;3163;51.516;4.000;2023-07-29T15:25:28;22.90;99.90
6260;DHT22;3163;51.516;4.000;2023-07-29T15:27:53;23.10;99.90
6260;DHT22;3163;51.516;4.000;2023-07-29T15:30:19;23.20;99.90
6260;DHT22;3163;51.516;4.000;2023-07-29T15:32:45;23.30;99.90
6260;DHT22;3163;51.516;4.000;2023-07-29T15:35:11;23.40;99.90
6260;DHT22;3163;51.516;4.000;2023-07-29T15:37:37;23.40;99.90
6260;DHT22;3163;51.516;4.000;2023-07-29T15:40:03;23.20;99.90
6260;DHT22;3163;51.516;4.000;2023-07-29T15:42:29;23.30;99.90
6260;DHT22;3163;51.516;4.000;2023-07-29T15:44:55;23.50;99.90
6260;DHT22;3163;51.516;4.000;2023-07-29T15:47:21;24.10;99.90
6260;DHT22;3163;51.516;4.000;2023-07-29T15:49:46;24.40;99.90
6260;DHT22;3163;51.516;4.000;2023-07-29T15:52:12;24.60;99.90
6260;DHT22;3163;51.516;4.000;2023-07-29T15:54:40;24.80;99.90
6260;DHT22;3163;51.516;4.000;2023-07-29T15:57:06;25.00;99.90
6260;DHT22;3163;51.516;4.000;2023-07-29T15:59:32;25.00;99.90
6260;DHT22;3163;51.516;4.000;2023-07-29T16:01:58;24.90;99.90
6260;DHT22;3163;51.516;4.000;2023-07-29T16:04:23;25.00;99.90
6260;DHT22;3163;51.516;4.000;2023-07-29T16:06:49;25.10;99.90
6260;DHT22;3163;51.516;4.000;2023-07-29T16:09:15;25.00;99.90
6260;DHT22;3163;51.516;4.000;2023-07-29T16:11:40;25.00;99.90
6260;DHT22;3163;51.516;4.000;2023-07-29T16:14:06;25.10;99.90
6260;DHT22;3163;51.516;4.000;2023-07-29T16:16:32;25.10;99.90
6260;DHT22;3163;51.516;4.000;2023-07-29T16:18:57;25.00;99.90
6260;DHT22;3163;51.516;4.000;2023-07-29T16:21:23;24.90;99.90
6260;DHT22;3163;51.516;4.000;2023-07-29T16:23:49;24.90;99.90
6260;DHT22;3163;51.516;4.000;2023-07-29T16:26:21;24.90;99.90
6260;DHT22;3163;51.516;4.000;2023-07-29T16:28:47;24.90;99.90
6260;DHT22;3163;51.516;4.000;2023-07-29T16:31:13;24.90;99.90
6260;DHT22;3163;51.516;4.000;2023-07-29T16:33:39;24.90;99.90
6260;DHT22;3163;51.516;4.000;2023-07-29T16:36:05;24.90;99.90
6260;DHT22;3163;51.516;4.000;2023-07-29T16:38:34;25.00;99.90
6260;DHT22;3163;51.516;4.000;2023-07-29T16:40:59;25.00;99.90